Time;durP1;ratioP1;P1;durP2;ratioP2;P2;SDS_P1;SDS_P2;PMS_P1;PMS_P2;Temp;Humidity;BMP_temperature;BMP_pressure;BME280_temperature;BME280_humidity;BME280_pressure;Samples;Min_cycle;Max_cycle;Signal;HPM_P1;HPM_P2
2023/01/17 00:02:18;;;;;;;;;3.00;3.00;;;;;3.62;84.49;96439.63;5095127;28;9487;-59
2023/01/17 00:10:16;;;;;;;;;3.00;2.60;;;;;3.64;84.63;96451.59;5095557;28;8818;-58
2023/01/17 00:12:44;;;;;;;;;1.00;1.00;;;;;3.66;84.52;96456.69;5095689;28;8834;-59
2023/01/17 00:15:11;;;;;;;;;2.20;1.80;;;;;3.66;84.67;96451.44;5095312;28;8822;-58
2023/01/17 00:17:39;;;;;;;;;2.60;1.00;;;;;3.66;84.88;96457.53;5095578;28;8845;-58
2023/01/17 01:35:18;;;;;;;;;1.00;0.60;;;;;3.67;85.64;96551.22;5096902;28;8842;-59
2023/01/17 01:37:46;;;;;;;;;0.80;0.80;;;;;3.67;84.86;96545.97;5097455;28;8830;-58
2023/01/17 01:40:14;;;;;;;;;1.00;0.40;;;;;3.65;85.57;96557.63;5097322;28;8826;-59
2023/01/17 01:42:42;;;;;;;;;2.20;2.20;;;;;3.65;85.04;96550.56;5097594;28;8834;-59
2023/01/17 01:45:09;;;;;;;;;1.00;1.00;;;;;3.65;85.16;96563.72;5097131;28;8834;-58
2023/01/17 01:47:37;;;;;;;;;1.00;1.00;;;;;3.65;85.36;96569.00;5097727;28;8842;-58
2023/01/17 01:50:05;;;;;;;;;0.80;0.00;;;;;3.66;85.04;96572.44;5097248;28;8852;-59
2023/01/17 01:52:33;;;;;;;;;0.00;0.00;;;;;3.64;85.39;96577.03;5097833;28;8826;-59
2023/01/17 01:55:00;;;;;;;;;0.20;0.20;;;;;3.63;85.01;96584.09;5098047;28;8834;-59
2023/01/17 01:57:28;;;;;;;;;1.00;1.00;;;;;3.62;84.98;96587.72;5097538;28;8922;-59
2023/01/17 01:59:56;;;;;;;;;1.00;1.00;;;;;3.61;84.97;96582.59;5097585;28;9508;-59
2023/01/17 02:02:24;;;;;;;;;1.40;1.00;;;;;3.59;85.13;96600.34;5097042;28;8834;-59
2023/01/17 02:04:51;;;;;;;;;0.00;0.00;;;;;3.53;84.99;96608.88;5097472;28;8825;-59
2023/01/17 02:07:19;;;;;;;;;3.00;3.00;;;;;3.50;85.13;96609.22;5097445;28;8838;-58
2023/01/17 02:09:47;;;;;;;;;1.00;1.00;;;;;3.49;85.45;96623.34;5097193;28;8822;-59
2023/01/17 02:12:14;;;;;;;;;1.40;1.40;;;;;3.47;85.59;96625.34;5097010;28;8852;-58
2023/01/17 02:14:42;;;;;;;;;1.00;1.00;;;;;3.44;85.68;96637.00;5097367;28;8911;-58
2023/01/17 02:17:10;;;;;;;;;0.00;0.00;;;;;3.40;85.28;96640.91;5097501;28;8919;-58
2023/01/17 02:19:38;;;;;;;;;0.00;0.00;;;;;3.35;85.75;96653.72;5097020;28;8837;-58
2023/01/17 02:22:05;;;;;;;;;1.00;1.00;;;;;3.31;85.82;96657.63;5097250;28;8829;-58
2023/01/17 02:24:33;;;;;;;;;0.00;0.00;;;;;3.29;85.51;96659.59;5097102;28;8898;-58
2023/01/17 02:27:00;;;;;;;;;1.00;1.00;;;;;3.27;85.34;96672.06;5097039;28;8923;-59
2023/01/17 02:29:28;;;;;;;;;0.00;0.00;;;;;3.23;85.81;96659.41;5097085;28;8810;-58
2023/01/17 02:31:56;;;;;;;;;0.00;0.00;;;;;3.22;86.08;96669.09;5096888;28;8922;-58
2023/01/17 02:34:24;;;;;;;;;1.00;1.00;;;;;3.20;85.45;96676.31;5097104;28;9531;-58
2023/01/17 02:36:51;;;;;;;;;0.40;0.40;;;;;3.15;85.47;96681.22;5096840;28;8830;-58
2023/01/17 02:39:19;;;;;;;;;0.00;0.00;;;;;3.02;86.11;96680.00;5096989;28;8964;-58
2023/01/17 02:41:47;;;;;;;;;0.00;0.00;;;;;2.94;86.12;96691.28;5097169;28;9464;-57
2023/01/17 02:44:15;;;;;;;;;0.40;0.40;;;;;2.89;85.88;96697.97;5096599;28;8818;-57
2023/01/17 02:46:42;;;;;;;;;1.00;0.00;;;;;2.81;85.70;96698.75;5096844;28;9546;-58
2023/01/17 02:49:10;;;;;;;;;0.80;0.80;;;;;2.71;86.34;96707.69;5096884;28;8810;-58
2023/01/17 02:51:38;;;;;;;;;1.00;1.00;;;;;2.67;85.94;96699.31;5096612;28;8833;-57
2023/01/17 02:54:06;;;;;;;;;1.00;1.00;;;;;2.68;86.25;96710.63;5096748;28;8810;-57
2023/01/17 02:56:33;;;;;;;;;1.00;0.80;;;;;2.70;86.05;96706.88;5096684;28;9530;-57
2023/01/17 02:59:01;;;;;;;;;2.20;2.20;;;;;2.75;86.51;96716.94;5096437;28;8826;-57
2023/01/17 03:01:30;;;;;;;;;3.80;3.00;;;;;2.78;86.47;96706.94;5096268;28;8814;-57
2023/01/17 03:03:57;;;;;;;;;4.60;3.60;;;;;2.83;85.84;96714.34;5096203;28;8852;-57
2023/01/17 03:06:25;;;;;;;;;1.80;1.00;;;;;2.84;86.28;96708.97;5096385;28;8849;-57
2023/01/17 03:08:53;;;;;;;;;3.00;3.00;;;;;2.86;86.64;96714.88;5096251;28;8830;-57
2023/01/17 03:11:21;;;;;;;;;1.00;1.00;;;;;2.87;86.41;96723.59;5096160;28;8830;-57
2023/01/17 03:13:49;;;;;;;;;0.80;0.80;;;;;2.87;86.07;96713.88;5096011;28;8810;-57
2023/01/17 03:16:16;;;;;;;;;0.00;0.00;;;;;2.86;85.99;96725.38;5095914;28;8833;-57
2023/01/17 03:18:44;;;;;;;;;1.40;0.20;;;;;2.81;86.35;96732.88;5095563;28;8846;-57
2023/01/17 03:21:12;;;;;;;;;0.00;0.00;;;;;2.73;85.75;96758.28;5095852;28;8885;-57
2023/01/17 03:23:39;;;;;;;;;0.00;0.00;;;;;2.51;85.68;96762.19;5095687;28;8918;-57
2023/01/17 03:26:07;;;;;;;;;0.00;0.00;;;;;2.24;86.16;96778.03;5095931;28;9630;-56
2023/01/17 03:28:35;;;;;;;;;0.00;0.00;;;;;2.04;86.38;96784.34;5095853;28;8814;-57
2023/01/17 03:31:03;;;;;;;;;0.00;0.00;;;;;1.88;86.78;96781.56;5095927;28;8830;-56
2023/01/17 03:33:31;;;;;;;;;0.00;0.00;;;;;1.76;86.73;96769.59;5095646;28;8856;-57
2023/01/17 03:35:58;;;;;;;;;0.00;0.00;;;;;1.69;86.93;96778.22;5096303;28;8841;-56
2023/01/17 03:38:26;;;;;;;;;0.00;0.00;;;;;1.61;87.08;96792.03;5095665;28;8834;-57
2023/01/17 03:40:54;;;;;;;;;0.00;0.00;;;;;1.56;87.68;96810.00;5095388;28;8845;-57
2023/01/17 03:43:22;;;;;;;;;0.00;0.00;;;;;1.51;87.77;96809.59;5095855;28;8850;-57
2023/01/17 03:45:50;;;;;;;;;0.00;0.00;;;;;1.48;88.18;96806.44;5095797;28;8906;-57
2023/01/17 03:48:18;;;;;;;;;0.00;0.00;;;;;1.44;87.32;96813.75;5095872;28;8965;-57
2023/01/17 03:50:46;;;;;;;;;0.00;0.00;;;;;1.43;88.02;96817.34;5095757;28;8841;-56
2023/01/17 03:53:13;;;;;;;;;0.00;0.00;;;;;1.41;87.91;96824.53;5095578;28;8834;-56
2023/01/17 03:55:41;;;;;;;;;0.00;0.00;;;;;1.41;87.89;96824.53;5095935;28;8852;-56
2023/01/17 03:58:09;;;;;;;;;0.00;0.00;;;;;1.40;87.60;96830.75;5097531;28;8826;-57
2023/01/17 04:00:37;;;;;;;;;0.00;0.00;;;;;1.39;88.09;96826.50;5099702;28;8826;-56
2023/01/17 04:03:04;;;;;;;;;0.00;0.00;;;;;1.39;87.87;96829.13;5099662;28;8841;-57
2023/01/17 04:05:32;;;;;;;;;0.00;0.00;;;;;1.40;87.77;96835.16;5099758;28;8830;-54
2023/01/17 04:08:00;;;;;;;;;0.00;0.00;;;;;1.39;88.17;96846.63;5099763;28;8829;-57
2023/01/17 04:10:27;;;;;;;;;0.00;0.00;;;;;1.41;87.63;96847.28;5099920;28;8837;-58
2023/01/17 04:12:55;;;;;;;;;0.00;0.00;;;;;1.41;87.86;96840.28;5099559;28;8814;-56
2023/01/17 04:15:24;;;;;;;;;0.00;0.00;;;;;1.43;87.42;96834.88;5099336;28;8833;-56
2023/01/17 04:17:51;;;;;;;;;0.00;0.00;;;;;1.45;87.95;96848.69;5099399;28;8865;-57
2023/01/17 04:20:19;;;;;;;;;0.00;0.00;;;;;1.44;87.46;96842.59;5099434;28;8962;-56
2023/01/17 04:22:47;;;;;;;;;0.00;0.00;;;;;1.45;87.03;96833.75;5099001;28;8898;-57
2023/01/17 04:25:14;;;;;;;;;0.00;0.00;;;;;1.47;87.31;96839.72;5099465;28;8810;-57
2023/01/17 04:27:42;;;;;;;;;0.00;0.00;;;;;1.48;87.67;96843.13;5099417;28;8838;-57
2023/01/17 04:30:10;;;;;;;;;0.00;0.00;;;;;1.47;87.84;96844.94;5098867;28;8860;-57
2023/01/17 04:32:38;;;;;;;;;0.00;0.00;;;;;1.49;87.34;96850.03;5099456;28;8867;-57
2023/01/17 04:35:05;;;;;;;;;0.00;0.00;;;;;1.49;87.62;96850.88;5098698;28;8825;-56
2023/01/17 04:37:33;;;;;;;;;0.00;0.00;;;;;1.51;87.51;96854.16;5099075;28;8822;-57
2023/01/17 04:40:02;;;;;;;;;0.00;0.00;;;;;1.54;87.40;96859.16;5098263;28;8838;-56
2023/01/17 04:42:29;;;;;;;;;0.00;0.00;;;;;1.56;87.10;96857.19;5098472;28;8810;-56
2023/01/17 04:44:57;;;;;;;;;0.00;0.00;;;;;1.59;87.59;96862.13;5098638;28;8828;-56
2023/01/17 04:47:25;;;;;;;;;1.00;1.00;;;;;1.61;86.86;96860.19;5098705;28;8833;-56
2023/01/17 04:49:53;;;;;;;;;0.00;0.00;;;;;1.62;87.27;96867.13;5098297;28;8865;-56
2023/01/17 04:52:21;;;;;;;;;0.00;0.00;;;;;1.64;87.01;96864.34;5098073;28;8872;-55
2023/01/17 04:54:48;;;;;;;;;0.00;0.00;;;;;1.65;87.53;96872.06;5098215;28;8830;-56
2023/01/17 04:57:16;;;;;;;;;0.00;0.00;;;;;1.67;87.25;96880.59;5097027;28;8826;-56
2023/01/17 04:59:44;;;;;;;;;1.00;1.00;;;;;1.69;87.46;96878.69;5096819;28;8822;-56
2023/01/17 05:02:12;;;;;;;;;0.00;0.00;;;;;1.69;87.21;96883.94;5096210;28;8869;-56
2023/01/17 05:04:40;;;;;;;;;1.80;1.40;;;;;1.73;86.76;96887.91;5096562;28;8830;-56
2023/01/17 05:07:07;;;;;;;;;3.00;3.00;;;;;1.75;87.11;96888.59;5097028;28;8829;-57
2023/01/17 05:09:35;;;;;;;;;0.60;0.60;;;;;1.78;86.64;96893.56;5095185;28;8829;-56
2023/01/17 05:12:03;;;;;;;;;4.40;3.00;;;;;1.79;86.35;96889.97;5097076;28;8834;-55
2023/01/17 05:14:33;;;;;;;;;0.00;0.00;;;;;1.83;87.21;96896.56;5097194;28;8841;-56
2023/01/17 05:17:01;;;;;;;;;1.00;1.00;;;;;1.85;86.55;96897.25;5096010;28;8818;-55
2023/01/17 05:19:29;;;;;;;;;1.80;1.00;;;;;1.87;86.47;96900.56;5096931;28;8856;-57
2023/01/17 05:22:02;;;;;;;;;0.00;0.00;;;;;1.90;86.30;96902.88;5097345;28;8826;-57
2023/01/17 05:24:31;;;;;;;;;1.00;1.00;;;;;1.92;86.31;96915.88;5097260;28;8836;-56
2023/01/17 05:27:01;;;;;;;;;2.80;2.80;;;;;1.93;86.11;96904.41;5097206;28;8810;-56
2023/01/17 05:29:30;;;;;;;;;0.20;0.20;;;;;1.94;86.43;96913.91;5097932;28;8837;-57
2023/01/17 05:31:58;;;;;;;;;0.00;0.00;;;;;1.95;86.14;96912.94;5098125;28;8846;-56
2023/01/17 05:34:26;;;;;;;;;1.00;1.00;;;;;1.95;86.76;96910.31;5098043;28;8864;-56
2023/01/17 05:36:53;;;;;;;;;1.00;1.00;;;;;1.95;86.23;96911.16;5097490;28;8810;-55
2023/01/17 05:39:21;;;;;;;;;2.20;1.80;;;;;1.99;86.94;96919.56;5097685;28;8810;-57
2023/01/17 05:41:50;;;;;;;;;1.40;1.00;;;;;1.99;86.68;96923.00;5097811;28;8834;-56
2023/01/17 05:44:18;;;;;;;;;1.00;1.00;;;;;1.99;86.12;96923.00;5097009;28;8821;-57
2023/01/17 05:46:45;;;;;;;;;2.60;2.60;;;;;2.01;86.52;96931.59;5096739;28;8814;-57
2023/01/17 05:49:13;;;;;;;;;0.00;0.00;;;;;2.01;86.77;96934.19;5096029;28;8850;-56
2023/01/17 05:51:41;;;;;;;;;3.00;3.00;;;;;2.00;86.32;96929.09;5095177;28;8850;-57
2023/01/17 05:54:08;;;;;;;;;3.60;2.20;;;;;1.99;86.09;96936.13;5094457;28;9838;-57
2023/01/17 05:56:36;;;;;;;;;1.00;0.40;;;;;1.98;86.06;96931.84;5095307;28;9567;-56
2023/01/17 05:59:04;;;;;;;;;3.20;2.60;;;;;1.96;85.99;96933.78;5095208;28;8838;-56
2023/01/17 06:01:32;;;;;;;;;1.40;1.40;;;;;1.95;86.26;96937.41;5094953;28;8826;-57
2023/01/17 06:04:00;;;;;;;;;2.60;1.00;;;;;1.93;86.34;96954.25;5095621;28;8845;-57
2023/01/17 06:06:28;;;;;;;;;0.80;0.20;;;;;1.91;86.40;96945.69;5095595;28;8826;-56
2023/01/17 06:08:56;;;;;;;;;0.80;0.80;;;;;1.89;86.10;96960.75;5095677;28;8825;-56
2023/01/17 06:11:23;;;;;;;;;1.80;1.80;;;;;1.89;86.85;96963.38;5095401;28;8861;-57
2023/01/17 06:13:51;;;;;;;;;0.40;0.40;;;;;1.91;86.57;96972.72;5095427;28;8826;-58
2023/01/17 06:16:19;;;;;;;;;1.80;1.80;;;;;1.92;86.60;96974.41;5095192;28;8834;-57
2023/01/17 06:18:47;;;;;;;;;1.00;1.00;;;;;1.92;86.47;96973.56;5095583;28;8838;-56
2023/01/17 06:21:14;;;;;;;;;1.00;1.00;;;;;1.93;86.17;96978.69;5095171;28;8862;-57
2023/01/17 06:23:42;;;;;;;;;2.20;2.20;;;;;1.93;86.57;96976.06;5095098;28;8810;-55
2023/01/17 06:26:10;;;;;;;;;0.00;0.00;;;;;1.92;86.16;96979.66;5095333;28;8817;-55
2023/01/17 06:28:37;;;;;;;;;3.00;1.80;;;;;1.90;86.30;96988.63;5094790;28;8834;-56
2023/01/17 06:31:06;;;;;;;;;3.00;3.00;;;;;1.84;86.05;96982.16;5095864;28;9496;-55
2023/01/17 06:33:34;;;;;;;;;1.00;0.60;;;;;1.79;86.38;96991.41;5094805;28;8824;-56
2023/01/17 06:36:02;;;;;;;;;4.60;3.60;;;;;1.73;86.69;96987.56;5094322;28;8958;-57
2023/01/17 06:38:29;;;;;;;;;1.00;1.00;;;;;1.69;86.51;96999.31;5093848;28;8838;-57
2023/01/17 06:40:59;;;;;;;;;0.20;0.20;;;;;1.66;86.92;96996.13;5093187;28;8829;-54
2023/01/17 06:43:27;;;;;;;;;3.00;3.00;;;;;1.62;87.33;96992.97;5092399;28;8953;-56
2023/01/17 06:45:55;;;;;;;;;1.00;1.00;;;;;1.62;86.95;96997.38;5093627;28;8838;-57
2023/01/17 06:48:23;;;;;;;;;0.00;0.00;;;;;1.64;86.92;97000.66;5093163;28;8838;-57
2023/01/17 06:50:50;;;;;;;;;1.00;1.00;;;;;1.68;86.97;96999.44;5092838;28;8862;-56
2023/01/17 06:53:18;;;;;;;;;0.80;0.80;;;;;1.69;86.90;97004.56;5092920;28;9499;-57
2023/01/17 06:55:46;;;;;;;;;1.80;1.00;;;;;1.73;86.84;96999.81;5093359;28;8822;-57
2023/01/17 06:58:13;;;;;;;;;2.20;2.20;;;;;1.76;86.56;97005.63;5093219;28;8850;-57
2023/01/17 07:00:43;;;;;;;;;2.20;2.20;;;;;1.77;86.53;97007.31;5092673;28;8838;-57
2023/01/17 07:03:11;;;;;;;;;3.60;3.60;;;;;1.80;86.68;97016.66;5092239;28;8895;-55
2023/01/17 07:05:40;;;;;;;;;1.00;1.00;;;;;1.80;87.17;97019.28;5092714;28;8810;-57
2023/01/17 07:08:08;;;;;;;;;3.00;3.00;;;;;1.81;86.69;97021.78;5091966;28;8826;-57
2023/01/17 07:10:37;;;;;;;;;2.20;2.20;;;;;1.81;86.30;97027.00;5092125;28;8934;-57
2023/01/17 07:13:04;;;;;;;;;1.00;1.00;;;;;1.82;86.50;97025.25;5090992;28;8861;-57
2023/01/17 07:15:32;;;;;;;;;2.20;1.80;;;;;1.83;86.50;97027.69;5090489;28;8860;-57
2023/01/17 07:18:00;;;;;;;;;3.00;3.00;;;;;1.84;87.00;97029.38;5091656;28;8810;-56
2023/01/17 07:20:28;;;;;;;;;1.00;1.00;;;;;1.86;86.66;97037.09;5091403;28;8849;-56
2023/01/17 07:22:56;;;;;;;;;1.00;1.00;;;;;1.87;86.17;97036.13;5091092;28;8826;-57
2023/01/17 07:25:23;;;;;;;;;1.00;1.00;;;;;1.89;86.71;97028.97;5092012;28;8853;-55
2023/01/17 07:27:56;;;;;;;;;0.80;0.00;;;;;1.89;86.08;97027.13;5092272;28;8822;-55
2023/01/17 07:30:25;;;;;;;;;0.40;0.40;;;;;1.89;86.32;97032.38;5092282;28;8903;-57
2023/01/17 07:32:54;;;;;;;;;0.20;0.20;;;;;1.86;86.27;97027.44;5091787;28;8836;-57
2023/01/17 07:35:22;;;;;;;;;1.80;0.60;;;;;1.84;85.86;97023.28;5092688;28;8880;-55
2023/01/17 07:37:50;;;;;;;;;4.20;1.00;;;;;1.80;86.05;97022.75;5090233;28;8833;-57
2023/01/17 07:40:18;;;;;;;;;3.00;3.00;;;;;1.77;86.58;97028.28;5089752;28;8976;-56
2023/01/17 07:42:46;;;;;;;;;2.20;0.60;;;;;1.74;86.65;97033.78;5089695;28;8842;-57
2023/01/17 07:45:14;;;;;;;;;0.00;0.00;;;;;1.71;86.63;97033.25;5089323;28;8857;-57
2023/01/17 07:47:42;;;;;;;;;3.20;3.00;;;;;1.67;87.06;97037.94;5090786;28;8829;-55
2023/01/17 07:50:10;;;;;;;;;1.00;1.00;;;;;1.67;86.23;97035.31;5092281;28;8919;-57
2023/01/17 07:52:38;;;;;;;;;2.60;1.40;;;;;1.66;86.58;97041.53;5093094;28;8922;-57
2023/01/17 07:55:05;;;;;;;;;0.60;0.60;;;;;1.66;86.55;97038.09;5092896;28;8841;-57
2023/01/17 07:57:33;;;;;;;;;3.40;3.40;;;;;1.66;86.65;97035.47;5092999;28;8868;-57
2023/01/17 08:00:01;;;;;;;;;4.00;3.80;;;;;1.68;86.28;97044.81;5094255;28;8869;-57
2023/01/17 08:02:29;;;;;;;;;3.80;3.00;;;;;1.68;86.53;97036.97;5093602;28;8934;-57
2023/01/17 08:04:57;;;;;;;;;1.80;1.80;;;;;1.73;86.31;97050.50;5093744;28;8836;-56
2023/01/17 08:07:25;;;;;;;;;4.80;4.80;;;;;1.77;86.25;97048.41;5093690;28;8868;-57
2023/01/17 08:09:53;;;;;;;;;4.00;4.00;;;;;1.83;87.07;97051.31;5093128;28;8814;-58
2023/01/17 08:12:21;;;;;;;;;3.40;3.00;;;;;1.89;86.35;97053.38;5093352;28;8846;-57
2023/01/17 08:14:49;;;;;;;;;3.00;3.00;;;;;1.93;86.36;97048.69;5092641;28;9550;-57
2023/01/17 08:17:19;;;;;;;;;3.80;3.80;;;;;1.99;85.74;97050.75;5092689;28;8833;-57
2023/01/17 08:19:48;;;;;;;;;6.00;6.00;;;;;2.05;86.25;97050.19;5092935;28;8869;-58
2023/01/17 08:22:16;;;;;;;;;7.60;6.80;;;;;2.08;85.25;97047.28;5093077;28;8838;-58
2023/01/17 08:24:45;;;;;;;;;4.00;4.00;;;;;2.11;85.67;97053.06;5092801;28;8830;-58
2023/01/17 08:27:12;;;;;;;;;4.00;3.20;;;;;2.14;85.63;97051.97;5093529;28;8826;-58
2023/01/17 08:29:45;;;;;;;;;3.00;1.80;;;;;2.16;85.45;97050.84;5093011;28;8834;-58
2023/01/17 08:32:13;;;;;;;;;4.00;4.00;;;;;2.18;85.92;97054.16;5093194;28;8822;-58
2023/01/17 08:34:42;;;;;;;;;6.20;6.20;;;;;2.18;85.73;97048.91;5093047;28;8965;-58
2023/01/17 08:37:10;;;;;;;;;2.60;2.20;;;;;2.17;85.65;97047.25;5093017;28;8872;-58
2023/01/17 08:39:38;;;;;;;;;4.00;3.80;;;;;2.19;85.65;97042.69;5091580;28;8903;-57
2023/01/17 08:42:06;;;;;;;;;4.40;3.80;;;;;2.21;85.46;97056.50;5090767;28;8873;-58
2023/01/17 08:44:33;;;;;;;;;4.40;4.00;;;;;2.22;85.57;97046.84;5093269;28;8860;-58
2023/01/17 08:47:01;;;;;;;;;8.60;8.60;;;;;2.22;85.13;97044.22;5095563;28;8830;-58
2023/01/17 08:49:29;;;;;;;;;3.80;3.00;;;;;2.23;85.54;97043.22;5094988;28;8834;-58
2023/01/17 08:51:57;;;;;;;;;4.40;4.00;;;;;2.25;85.53;97046.53;5095527;28;8866;-58
2023/01/17 08:54:25;;;;;;;;;4.80;4.80;;;;;2.25;85.33;97055.25;5095518;28;8844;-58
2023/01/17 08:56:54;;;;;;;;;3.60;3.60;;;;;2.27;84.94;97057.75;5096165;28;8968;-58
2023/01/17 08:59:23;;;;;;;;;3.20;3.20;;;;;2.28;84.80;97054.94;5096336;28;8964;-58
2023/01/17 09:01:51;;;;;;;;;1.40;1.40;;;;;2.27;84.88;97049.88;5095865;28;8836;-58
2023/01/17 09:04:19;;;;;;;;;6.20;5.80;;;;;2.25;85.67;97055.25;5095581;28;8842;-58
2023/01/17 09:06:47;;;;;;;;;6.00;5.60;;;;;2.28;84.90;97054.13;5096139;28;8826;-57
2023/01/17 09:09:15;;;;;;;;;1.00;1.00;;;;;2.30;84.94;97055.66;5096516;28;8880;-58
2023/01/17 09:11:43;;;;;;;;;6.00;4.80;;;;;2.32;85.34;97058.97;5095898;28;8825;-58
2023/01/17 09:14:11;;;;;;;;;5.60;5.60;;;;;2.35;85.02;97060.47;5094882;28;8830;-58
2023/01/17 09:16:39;;;;;;;;;3.00;3.00;;;;;2.42;85.39;97062.38;5095477;28;8830;-58
2023/01/17 09:19:07;;;;;;;;;6.60;4.80;;;;;2.52;85.44;97060.56;5095072;28;8830;-59
2023/01/17 09:21:35;;;;;;;;;4.80;4.00;;;;;2.61;84.87;97061.50;5096056;28;9007;-58
2023/01/17 09:24:03;;;;;;;;;4.20;2.60;;;;;2.67;84.68;97068.78;5095225;28;8877;-58
2023/01/17 09:26:32;;;;;;;;;4.80;4.20;;;;;2.64;84.83;97069.91;5095099;28;9495;-58
2023/01/17 09:29:00;;;;;;;;;6.00;4.80;;;;;2.63;85.03;97068.25;5095093;28;8866;-58
2023/01/17 09:31:27;;;;;;;;;3.00;3.00;;;;;2.62;84.48;97069.22;5094927;28;8911;-59
2023/01/17 09:33:55;;;;;;;;;4.00;4.00;;;;;2.64;84.55;97075.16;5094603;28;8877;-58
2023/01/17 09:36:27;;;;;;;;;3.40;3.00;;;;;2.70;84.87;97071.97;5093729;28;8837;-59
2023/01/17 09:38:55;;;;;;;;;3.00;3.00;;;;;2.79;84.89;97075.53;5094709;28;8917;-58
2023/01/17 09:41:26;;;;;;;;;5.20;4.40;;;;;2.86;84.34;97077.44;5094870;28;8834;-59
2023/01/17 09:43:54;;;;;;;;;4.80;4.40;;;;;2.98;83.94;97083.31;5094956;28;8822;-58
2023/01/17 09:46:22;;;;;;;;;3.20;3.20;;;;;3.12;84.27;97078.41;5093626;28;8834;-58
2023/01/17 09:48:50;;;;;;;;;1.00;1.00;;;;;3.20;83.68;97078.50;5093366;28;8836;-59
2023/01/17 09:51:18;;;;;;;;;3.60;3.00;;;;;3.25;83.94;97081.50;5093881;28;8857;-58
2023/01/17 09:53:46;;;;;;;;;3.80;3.80;;;;;3.26;83.46;97084.97;5093013;28;8822;-58
2023/01/17 09:56:14;;;;;;;;;3.20;3.00;;;;;3.24;83.75;97079.84;5093115;28;8818;-58
2023/01/17 09:58:42;;;;;;;;;3.00;3.00;;;;;3.23;83.31;97088.72;5092825;28;8825;-57
2023/01/17 10:01:11;;;;;;;;;3.20;3.00;;;;;3.26;83.97;97090.22;5090426;28;8984;-58
2023/01/17 10:03:39;;;;;;;;;4.40;4.40;;;;;3.28;83.73;97091.75;5091794;28;9540;-59
2023/01/17 10:06:07;;;;;;;;;0.00;0.00;;;;;3.33;83.76;97093.94;5092421;28;8825;-58
2023/01/17 10:08:35;;;;;;;;;6.60;6.40;;;;;3.37;83.27;97090.84;5092734;28;8826;-59
2023/01/17 10:11:03;;;;;;;;;3.40;3.40;;;;;3.43;83.34;97082.38;5093380;28;8861;-59
2023/01/17 10:13:31;;;;;;;;;2.80;2.80;;;;;3.55;83.01;97085.63;5093819;28;8919;-59
2023/01/17 10:16:00;;;;;;;;;3.80;3.80;;;;;3.72;82.92;97084.78;5095041;28;8853;-58
2023/01/17 10:18:28;;;;;;;;;5.00;4.20;;;;;3.94;82.14;97078.09;5094737;28;8814;-59
2023/01/17 10:20:57;;;;;;;;;2.20;2.20;;;;;4.29;81.55;97080.69;5092512;28;9511;-59
2023/01/17 10:23:24;;;;;;;;;3.40;3.20;;;;;4.83;80.75;97067.19;5092918;28;8825;-58
2023/01/17 10:25:54;;;;;;;;;6.40;6.00;;;;;5.51;79.18;97058.22;5093594;28;9570;-59
2023/01/17 10:28:22;;;;;;;;;6.00;3.60;;;;;6.12;77.81;97063.91;5093557;28;8822;-59
2023/01/17 10:30:50;;;;;;;;;2.20;1.00;;;;;6.65;77.09;97061.53;5092927;28;8846;-59
2023/01/17 10:33:18;;;;;;;;;4.80;4.80;;;;;7.21;75.83;97055.25;5093312;28;8928;-59
2023/01/17 10:35:45;;;;;;;;;4.80;3.40;;;;;7.72;75.65;97053.66;5093764;28;8830;-59
2023/01/17 10:38:14;;;;;;;;;4.80;4.00;;;;;8.33;74.76;97050.06;5094386;28;8833;-59
2023/01/17 10:40:42;;;;;;;;;6.60;4.00;;;;;8.92;74.06;97043.84;5093454;28;8840;-59
2023/01/17 10:43:10;;;;;;;;;3.25;3.25;;;;;9.38;73.17;97039.97;5092564;28;8837;-59
2023/01/17 10:45:38;;;;;;;;;4.00;3.00;;;;;9.70;72.42;97040.34;5091418;28;8838;-59
2023/01/17 10:48:06;;;;;;;;;3.00;3.00;;;;;10.03;72.24;97032.75;5091040;28;9573;-58
2023/01/17 10:50:34;;;;;;;;;9.00;5.00;;;;;10.28;71.59;97040.16;5090915;28;8980;-59
2023/01/17 10:53:04;;;;;;;;;2.75;1.00;;;;;10.51;71.25;97040.75;5092653;28;9495;-59
2023/01/17 10:55:32;;;;;;;;;5.50;4.00;;;;;10.87;70.70;97041.44;5092918;28;8834;-59
2023/01/17 10:58:00;;;;;;;;;5.50;5.50;;;;;11.21;69.82;97038.78;5092242;28;8853;-60
2023/01/17 11:00:28;;;;;;;;;6.25;4.00;;;;;11.58;69.84;97037.53;5092825;28;8825;-60
2023/01/17 11:02:56;;;;;;;;;7.00;6.00;;;;;11.83;69.51;97044.78;5093139;28;8842;-60
2023/01/17 11:05:25;;;;;;;;;5.00;4.00;;;;;12.00;68.84;97040.75;5091533;28;8856;-59
2023/01/17 11:07:53;;;;;;;;;6.75;6.75;;;;;12.08;68.94;97035.22;5090711;28;8838;-60
2023/01/17 11:10:21;;;;;;;;;9.25;8.00;;;;;12.02;69.06;97041.38;5092204;28;8842;-60
2023/01/17 11:12:49;;;;;;;;;6.00;6.00;;;;;11.71;70.36;97041.06;5091859;28;8834;-60
2023/01/17 11:15:18;;;;;;;;;6.25;6.25;;;;;11.77;70.10;97048.28;5092441;28;8853;-60
2023/01/17 11:17:47;;;;;;;;;7.00;6.00;;;;;11.70;70.12;97043.94;5092156;28;8852;-60
2023/01/17 11:20:18;;;;;;;;;7.00;6.50;;;;;11.79;69.39;97040.91;5091387;28;8846;-60
2023/01/17 11:22:46;;;;;;;;;3.00;2.00;;;;;12.01;69.22;97039.72;5092893;28;8926;-60
2023/01/17 11:25:14;;;;;;;;;6.00;6.00;;;;;12.13;69.48;97038.09;5091561;28;8872;-60
2023/01/17 11:27:43;;;;;;;;;5.00;4.00;;;;;12.26;69.31;97032.78;5092586;28;9218;-60
2023/01/17 11:30:14;;;;;;;;;6.25;6.00;;;;;12.39;68.47;97032.81;5092656;28;8841;-59
2023/01/17 11:32:42;;;;;;;;;4.50;4.00;;;;;12.18;68.73;97039.16;5092561;28;8846;-60
2023/01/17 11:35:10;;;;;;;;;3.50;3.25;;;;;12.16;68.48;97033.16;5091098;28;8872;-60
2023/01/17 11:37:39;;;;;;;;;6.00;6.00;;;;;12.07;69.06;97037.06;5091017;28;8829;-60
2023/01/17 11:40:07;;;;;;;;;6.25;6.00;;;;;12.26;69.04;97035.44;5090351;28;8861;-59
2023/01/17 11:42:35;;;;;;;;;3.25;3.25;;;;;12.32;69.25;97038.13;5089478;28;8846;-60
2023/01/17 11:45:03;;;;;;;;;3.25;2.50;;;;;12.04;68.61;97044.66;5089680;28;8846;-60
2023/01/17 11:47:31;;;;;;;;;5.50;4.50;;;;;11.81;68.71;97051.34;5090044;28;8912;-60
2023/01/17 11:49:59;;;;;;;;;1.00;1.00;;;;;11.87;68.70;97048.72;5091522;28;8848;-60
2023/01/17 11:52:27;;;;;;;;;5.50;5.50;;;;;12.11;68.37;97035.66;5090196;28;8862;-60
2023/01/17 11:54:55;;;;;;;;;6.50;5.50;;;;;12.21;68.49;97040.56;5089914;28;8830;-59
2023/01/17 11:57:23;;;;;;;;;5.00;4.50;;;;;12.30;67.97;97031.38;5089548;28;8844;-60
2023/01/17 11:59:51;;;;;;;;;3.00;1.00;;;;;11.94;68.59;97036.22;5089557;28;8852;-59
2023/01/17 12:02:19;;;;;;;;;3.75;3.75;;;;;11.30;68.93;97032.25;5088808;28;8995;-60
2023/01/17 12:04:47;;;;;;;;;7.00;6.00;;;;;10.86;70.08;97038.97;5089395;28;8872;-59
2023/01/17 12:07:16;;;;;;;;;5.50;4.50;;;;;10.74;70.49;97025.38;5088609;28;8834;-59
2023/01/17 12:09:44;;;;;;;;;3.00;3.00;;;;;10.57;70.99;97029.34;5089312;28;8829;-60
2023/01/17 12:14:57;;;;;;;;;4.00;4.00;;;;;9.06;73.75;97029.75;5090458;28;8857;-60
2023/01/17 12:17:25;;;;;;;;;4.00;3.00;;;;;8.37;74.79;97036.28;5090703;28;8998;-60
2023/01/17 12:19:53;;;;;;;;;6.00;6.00;;;;;7.78;75.22;97042.38;5092458;28;8917;-59
2023/01/17 12:22:21;;;;;;;;;4.50;3.50;;;;;7.35;76.60;97042.09;5091562;28;8877;-58
2023/01/17 12:24:49;;;;;;;;;4.00;4.00;;;;;7.13;77.02;97044.72;5093048;28;9539;-59
2023/01/17 12:27:18;;;;;;;;;6.00;4.40;;;;;7.04;77.20;97048.38;5091872;28;8876;-60
2023/01/17 12:29:46;;;;;;;;;0.00;0.00;;;;;7.11;76.64;97042.22;5093215;28;8822;-60
2023/01/17 12:32:14;;;;;;;;;3.00;3.00;;;;;7.36;75.90;97046.41;5093907;28;8834;-60
2023/01/17 12:34:42;;;;;;;;;6.80;3.00;;;;;7.67;75.65;97035.81;5094638;28;8872;-60
2023/01/17 12:37:10;;;;;;;;;1.40;1.00;;;;;7.84;75.30;97036.34;5093166;28;9566;-59
2023/01/17 12:39:38;;;;;;;;;6.00;3.80;;;;;8.02;74.92;97036.06;5093643;28;8826;-60
2023/01/17 12:42:06;;;;;;;;;4.00;4.00;;;;;8.15;74.81;97039.75;5094921;28;8833;-60
2023/01/17 12:44:34;;;;;;;;;5.20;4.80;;;;;8.16;74.23;97046.72;5093948;28;8845;-60
2023/01/17 12:47:02;;;;;;;;;3.00;3.00;;;;;7.82;74.67;97042.81;5094512;28;9531;-60
2023/01/17 12:49:29;;;;;;;;;3.00;3.00;;;;;7.38;75.37;97038.28;5093248;28;8902;-60
2023/01/17 12:51:58;;;;;;;;;3.25;3.00;;;;;7.11;75.58;97041.38;5093088;28;8854;-60
2023/01/17 12:54:26;;;;;;;;;1.00;1.00;;;;;6.95;76.43;97047.59;5093060;28;8828;-58
2023/01/17 12:56:54;;;;;;;;;3.00;3.00;;;;;6.85;76.45;97046.97;5092640;28;8910;-59
2023/01/17 12:59:23;;;;;;;;;3.00;1.00;;;;;6.73;76.90;97037.72;5091871;28;8834;-60
2023/01/17 13:01:56;;;;;;;;;1.00;0.60;;;;;6.66;76.82;97041.25;5091117;28;8834;-60
2023/01/17 13:04:25;;;;;;;;;1.00;1.00;;;;;6.49;76.80;97045.72;5091349;28;8842;-60
2023/01/17 13:06:53;;;;;;;;;0.40;0.40;;;;;6.26;76.63;97050.03;5090105;28;8834;-60
2023/01/17 13:09:21;;;;;;;;;3.20;2.20;;;;;6.18;77.06;97057.13;5088728;28;8857;-60
2023/01/17 13:11:49;;;;;;;;;3.40;2.80;;;;;6.07;77.33;97054.84;5088125;28;8928;-59
2023/01/17 13:14:17;;;;;;;;;3.00;3.00;;;;;5.91;77.14;97055.66;5088032;28;8825;-59
2023/01/17 13:16:45;;;;;;;;;1.80;1.80;;;;;5.81;77.70;97056.78;5089571;28;8922;-59